Terminal Aerodrome Forecast
Issued by NWS

Home | Current Version | Previous Version | Text Only | Print | Product List | Glossary On
Versions: 1 2 3 4 5 6 7 8 9 10 11 12 13 14 15 16 17
000
FTUS45 KABQ 210500
TAFGUP
TAF
KGUP 210539Z 2106/2206 VRB05KT P6SM FEW120
     FM211900 VRB06KT P6SM FEW110 SCT200
     FM220000 21008KT P6SM VCSH BKN070
      TEMPO 2201/2205 VRB15G23KT 6SM SHRA BKN060=

USA.gov is the U.S. government's official web portal to all federal, state and local government web resources and services.